Time;durP1;ratioP1;P1;durP2;ratioP2;P2;SDS_P1;SDS_P2;PMS_P1;PMS_P2;Temp;Humidity;BMP_temperature;BMP_pressure;BME280_temperature;BME280_humidity;BME280_pressure;Samples;Min_cycle;Max_cycle;Signal;HPM_P1;HPM_P2
2021/12/24 00:00:30;;;;;;;89.20;35.25;;;6.00;99.90;;;;;;5093632;27;20043;-62
2021/12/24 00:02:56;;;;;;;98.38;37.10;;;6.10;99.90;;;;;;5092016;27;20043;-62
2021/12/24 00:05:24;;;;;;;127.97;38.47;;;6.10;99.90;;;;;;5096375;28;20040;-61
2021/12/24 00:07:49;;;;;;;94.38;36.83;;;6.10;99.90;;;;;;5075002;28;20040;-62
2021/12/24 00:10:16;;;;;;;72.45;32.33;;;6.20;99.90;;;;;;5082694;28;20050;-62
2021/12/24 00:12:47;;;;;;;88.65;34.55;;;6.20;99.90;;;;;;5099823;28;20038;-62
2021/12/24 00:15:48;;;;;;;84.95;35.45;;;6.30;99.90;;;;;;5102205;28;20473;-62
2021/12/24 00:37:05;;;;;;;52.17;26.17;;;6.50;99.90;;;;;;5097983;27;20048;-62
2021/12/24 00:39:34;;;;;;;61.38;26.73;;;6.50;99.90;;;;;;5082789;28;20488;-62
2021/12/24 00:41:59;;;;;;;59.53;26.45;;;6.50;99.90;;;;;;5081996;28;20039;-62
2021/12/24 00:44:25;;;;;;;62.60;27.27;;;6.60;99.90;;;;;;5084520;28;20040;-62
2021/12/24 00:46:51;;;;;;;60.80;26.73;;;6.60;99.90;;;;;;5103489;28;20035;-62
2021/12/24 00:49:16;;;;;;;58.80;26.15;;;6.60;99.90;;;;;;5084128;28;20043;-62
2021/12/24 00:52:06;;;;;;;52.28;24.17;;;6.60;99.90;;;;;;5112333;27;20047;-62
2021/12/24 00:57:15;;;;;;;57.55;25.48;;;6.70;99.90;;;;;;5099872;28;20075;-62
2021/12/24 00:59:40;;;;;;;52.45;22.92;;;6.70;99.90;;;;;;5065806;28;20082;-62
2021/12/24 01:02:06;;;;;;;37.28;20.70;;;6.70;99.90;;;;;;5080876;28;20039;-61
2021/12/24 01:04:31;;;;;;;40.30;20.92;;;6.70;99.90;;;;;;5101838;28;20024;-62
2021/12/24 01:06:57;;;;;;;43.10;20.60;;;6.70;99.90;;;;;;5102278;28;20037;-62
2021/12/24 01:09:23;;;;;;;43.60;19.73;;;6.80;99.90;;;;;;5079852;28;20052;-62
2021/12/24 01:11:49;;;;;;;34.65;17.83;;;6.80;99.90;;;;;;5080816;28;20053;-62
2021/12/24 01:14:15;;;;;;;35.42;18.33;;;6.80;99.90;;;;;;5099750;28;20035;-62
2021/12/24 01:16:49;;;;;;;39.25;19.60;;;6.90;99.90;;;;;;5083067;28;20039;-62
2021/12/24 01:19:20;;;;;;;34.15;17.85;;;6.90;99.90;;;;;;5100653;28;20284;-62
2021/12/24 01:24:27;;;;;;;29.60;16.65;;;6.90;99.90;;;;;;5081940;28;20050;-62
2021/12/24 01:29:42;;;;;;;24.13;14.82;;;7.00;99.90;;;;;;5083092;28;20044;-62
2021/12/24 01:37:56;;;;;;;23.23;13.85;;;7.10;99.90;;;;;;5098422;28;20075;-61
2021/12/24 01:40:50;;;;;;;21.40;12.25;;;7.00;99.90;;;;;;5097552;28;20040;-62
2021/12/24 01:43:10;;;;;;;18.95;12.15;;;7.10;99.90;;;;;;5075808;28;20134;-62
2021/12/24 01:45:37;;;;;;;21.42;12.07;;;7.10;99.90;;;;;;5094928;28;20118;-62
2021/12/24 01:48:09;;;;;;;17.35;11.27;;;7.10;99.90;;;;;;5079782;28;20050;-62
2021/12/24 01:50:36;;;;;;;18.67;11.68;;;7.20;99.90;;;;;;5077217;28;20435;-62
2021/12/24 01:53:04;;;;;;;17.25;11.70;;;7.20;99.90;;;;;;5077402;28;20059;-62
2021/12/24 01:55:30;;;;;;;16.30;11.02;;;7.20;99.90;;;;;;5077093;28;20043;-62
2021/12/24 01:57:56;;;;;;;17.35;11.98;;;7.20;99.90;;;;;;5097107;28;20366;-62
2021/12/24 02:00:27;;;;;;;19.00;10.90;;;7.20;99.90;;;;;;5111249;27;20052;-62
2021/12/24 02:02:53;;;;;;;17.30;11.02;;;7.30;99.90;;;;;;5109700;27;20032;-62
2021/12/24 02:05:19;;;;;;;17.92;11.85;;;7.30;99.90;;;;;;5113948;27;20044;-62
2021/12/24 02:07:45;;;;;;;14.52;9.68;;;7.30;99.90;;;;;;5079858;28;20516;-62
2021/12/24 02:10:13;;;;;;;16.27;11.15;;;7.30;99.90;;;;;;5080710;28;20055;-62
2021/12/24 02:12:40;;;;;;;13.95;10.18;;;7.30;99.90;;;;;;5095218;28;20047;-62
2021/12/24 02:15:12;;;;;;;20.52;12.18;;;7.30;99.90;;;;;;5079480;27;20047;-62
2021/12/24 02:28:36;;;;;;;24.10;12.65;;;7.40;99.90;;;;;;5114433;27;20479;-62
2021/12/24 02:31:03;;;;;;;19.23;12.60;;;7.40;99.90;;;;;;5087141;28;20043;-62
2021/12/24 02:33:29;;;;;;;15.73;10.00;;;7.40;99.90;;;;;;5099316;28;20051;-62
2021/12/24 02:35:55;;;;;;;17.35;10.77;;;7.40;99.90;;;;;;5084441;28;20043;-62
2021/12/24 02:38:20;;;;;;;16.50;11.13;;;7.50;99.90;;;;;;5102826;27;20044;-62
2021/12/24 02:40:46;;;;;;;14.02;10.63;;;7.50;99.90;;;;;;5084342;27;20058;-62
2021/12/24 02:43:16;;;;;;;14.90;9.88;;;7.50;99.90;;;;;;5102505;28;20379;-62
2021/12/24 02:45:44;;;;;;;18.58;11.23;;;7.60;99.90;;;;;;5102562;27;20096;-62
2021/12/24 02:48:34;;;;;;;13.70;9.05;;;7.60;99.90;;;;;;5083644;28;20044;-62
2021/12/24 02:53:59;;;;;;;19.05;11.25;;;7.60;99.90;;;;;;5101557;28;20040;-62
2021/12/24 02:56:33;;;;;;;14.20;9.60;;;7.70;99.90;;;;;;5084612;28;20044;-62
2021/12/24 02:59:04;;;;;;;14.75;10.48;;;7.70;99.90;;;;;;5086708;28;20040;-62
2021/12/24 03:01:34;;;;;;;18.05;10.63;;;7.70;99.90;;;;;;5102051;28;20032;-62
2021/12/24 03:03:59;;;;;;;18.90;10.50;;;7.70;99.90;;;;;;5113242;27;20042;-62
2021/12/24 03:06:29;;;;;;;15.20;9.65;;;7.80;99.90;;;;;;5102899;28;20043;-62
2021/12/24 03:08:55;;;;;;;21.10;10.65;;;7.80;99.90;;;;;;5088468;28;20044;-62
2021/12/24 03:11:22;;;;;;;28.08;12.68;;;7.80;99.90;;;;;;5086776;28;20500;-62
2021/12/24 03:13:50;;;;;;;29.05;13.00;;;8.00;99.90;;;;;;5082223;28;20039;-62
2021/12/24 03:16:16;;;;;;;24.48;11.25;;;8.00;99.90;;;;;;5089458;28;20603;-62
2021/12/24 03:18:43;;;;;;;26.60;12.60;;;8.00;99.90;;;;;;5112612;27;20572;-62
2021/12/24 03:21:24;;;;;;;29.55;12.88;;;8.10;99.90;;;;;;5105093;27;20035;-62
2021/12/24 03:26:37;;;;;;;29.95;12.90;;;8.10;99.90;;;;;;5101116;28;20093;-62
2021/12/24 03:29:06;;;;;;;37.47;14.90;;;8.20;99.90;;;;;;5088260;27;20031;-62
2021/12/24 03:31:33;;;;;;;39.08;15.20;;;8.30;99.90;;;;;;5114670;27;20044;-62
2021/12/24 03:34:00;;;;;;;37.13;15.07;;;8.30;99.90;;;;;;5086304;28;20051;-62
2021/12/24 03:36:26;;;;;;;34.50;15.23;;;8.30;99.90;;;;;;5085820;28;20044;-62
2021/12/24 03:38:54;;;;;;;41.70;16.67;;;8.30;99.90;;;;;;5114869;27;20089;-62
2021/12/24 03:41:21;;;;;;;34.15;14.88;;;8.30;99.90;;;;;;5083418;28;20052;-62
2021/12/24 03:43:47;;;;;;;38.53;15.93;;;8.40;99.90;;;;;;5111373;27;20031;-62
2021/12/24 03:46:16;;;;;;;37.50;15.02;;;8.40;99.90;;;;;;5085799;27;20047;-62
2021/12/24 03:48:51;;;;;;;41.95;15.88;;;8.40;99.90;;;;;;5103583;28;20445;-62
2021/12/24 03:51:28;;;;;;;30.33;14.70;;;8.50;99.90;;;;;;5103335;28;20048;-62
2021/12/24 03:56:40;;;;;;;34.03;16.35;;;8.50;99.90;;;;;;5112884;27;20130;-62
2021/12/24 03:59:07;;;;;;;36.65;16.90;;;8.40;99.90;;;;;;5098087;28;20082;-62
2021/12/24 04:01:34;;;;;;;48.78;19.83;;;8.40;99.90;;;;;;5103287;28;20036;-62
2021/12/24 04:04:00;;;;;;;44.28;20.63;;;8.50;99.90;;;;;;5103875;27;20039;-62
2021/12/24 04:06:26;;;;;;;42.65;19.13;;;8.50;99.90;;;;;;5084964;28;20052;-62
2021/12/24 04:08:52;;;;;;;54.45;22.55;;;8.50;99.90;;;;;;5082706;28;20617;-62
2021/12/24 04:11:17;;;;;;;37.28;18.83;;;8.50;99.90;;;;;;5083397;28;20043;-62
2021/12/24 04:13:43;;;;;;;40.35;20.80;;;8.50;99.90;;;;;;5082269;28;20043;-62
2021/12/24 04:16:09;;;;;;;44.40;20.58;;;8.50;99.90;;;;;;5086109;28;20136;-62
2021/12/24 04:26:32;;;;;;;57.40;26.30;;;8.60;99.90;;;;;;5100399;28;20119;-62
2021/12/24 04:28:58;;;;;;;63.35;27.77;;;8.60;99.90;;;;;;5100367;28;20465;-62
2021/12/24 04:31:31;;;;;;;64.75;26.42;;;8.60;99.90;;;;;;5082176;28;20089;-62
2021/12/24 04:34:02;;;;;;;52.85;22.67;;;8.60;99.90;;;;;;5105060;28;20066;-62
2021/12/24 04:52:42;;;;;;;47.22;23.50;;;8.60;99.90;;;;;;5100185;28;20039;-62
2021/12/24 05:03:28;;;;;;;53.33;26.13;;;8.70;99.90;;;;;;5096836;28;20039;-62
2021/12/24 05:06:08;;;;;;;52.28;23.52;;;8.70;99.90;;;;;;5099490;28;20046;-62
2021/12/24 05:08:42;;;;;;;54.10;24.23;;;8.70;99.90;;;;;;5100462;28;20046;-62
2021/12/24 05:11:10;;;;;;;57.33;25.92;;;8.70;99.90;;;;;;5083228;28;20081;-62
2021/12/24 05:13:37;;;;;;;51.95;23.00;;;8.60;99.90;;;;;;5078456;28;20143;-62
2021/12/24 05:16:16;;;;;;;41.13;21.90;;;8.60;99.90;;;;;;5078340;28;20047;-62
2021/12/24 05:21:33;;;;;;;45.90;21.58;;;8.70;99.90;;;;;;5074457;28;20078;-62
2021/12/24 05:24:06;;;;;;;50.38;22.25;;;8.70;99.90;;;;;;5093161;28;20425;-62
2021/12/24 05:26:33;;;;;;;40.03;21.25;;;8.70;99.90;;;;;;5082267;28;20397;-62
2021/12/24 05:28:59;;;;;;;49.90;23.50;;;8.70;99.90;;;;;;5076300;28;20051;-63
2021/12/24 05:31:25;;;;;;;53.38;22.33;;;8.70;99.90;;;;;;5077127;28;20044;-62
2021/12/24 05:33:51;;;;;;;57.80;24.77;;;8.60;99.90;;;;;;5100434;27;20058;-62
2021/12/24 05:36:17;;;;;;;46.78;23.35;;;8.70;99.90;;;;;;5102164;28;20040;-62
2021/12/24 05:38:43;;;;;;;49.90;22.10;;;8.70;99.90;;;;;;5098017;27;20677;-62
2021/12/24 05:41:09;;;;;;;48.75;21.88;;;8.70;99.90;;;;;;5111895;27;20141;-62
2021/12/24 05:43:36;;;;;;;40.13;20.33;;;8.70;99.90;;;;;;5080444;28;20036;-62
2021/12/24 05:46:01;;;;;;;43.00;18.98;;;8.70;99.90;;;;;;5101997;28;20062;-62
2021/12/24 05:48:27;;;;;;;47.15;18.95;;;8.70;99.90;;;;;;5100196;27;20567;-62
2021/12/24 05:50:53;;;;;;;49.00;18.75;;;8.70;99.90;;;;;;5080071;28;20043;-62
2021/12/24 05:53:19;;;;;;;42.08;18.30;;;8.70;99.90;;;;;;5097944;27;20122;-62
2021/12/24 05:55:45;;;;;;;36.78;17.77;;;8.70;99.90;;;;;;5075512;28;20420;-62
2021/12/24 05:58:11;;;;;;;44.40;20.33;;;8.80;99.90;;;;;;5075752;28;20047;-62
2021/12/24 06:00:39;;;;;;;35.60;15.15;;;8.70;99.90;;;;;;5075498;27;20051;-62
2021/12/24 06:03:08;;;;;;;38.17;15.82;;;8.70;99.90;;;;;;5097858;27;20040;-62
2021/12/24 06:05:35;;;;;;;40.22;14.70;;;8.70;99.90;;;;;;5082567;28;20085;-62
2021/12/24 06:08:00;;;;;;;37.22;14.70;;;8.70;99.90;;;;;;5098383;27;20048;-62
2021/12/24 06:10:27;;;;;;;39.10;13.93;;;8.70;99.90;;;;;;5098377;28;20043;-62
2021/12/24 06:12:52;;;;;;;34.97;12.95;;;8.70;99.90;;;;;;5079083;28;20034;-62
2021/12/24 06:15:23;;;;;;;29.25;11.90;;;8.70;99.90;;;;;;5078728;28;20044;-62
2021/12/24 06:17:53;;;;;;;36.75;12.77;;;8.70;99.90;;;;;;5081890;28;20473;-62
2021/12/24 06:20:18;;;;;;;26.90;11.05;;;8.70;99.90;;;;;;5082176;28;20075;-62
2021/12/24 06:22:44;;;;;;;37.25;12.18;;;8.70;99.90;;;;;;5096561;27;20433;-62
2021/12/24 06:25:10;;;;;;;36.28;12.82;;;8.70;99.90;;;;;;5081950;28;20051;-62
2021/12/24 06:27:36;;;;;;;28.60;12.05;;;8.60;99.90;;;;;;5099498;28;20044;-62
2021/12/24 06:30:04;;;;;;;30.77;12.00;;;8.70;99.90;;;;;;5099183;27;20036;-62
2021/12/24 06:32:30;;;;;;;38.47;15.30;;;8.70;99.90;;;;;;5079470;27;20062;-62
2021/12/24 06:34:55;;;;;;;33.33;12.38;;;8.70;99.90;;;;;;5098119;28;20036;-62
2021/12/24 06:37:21;;;;;;;42.47;13.23;;;8.70;99.90;;;;;;5083257;28;20093;-62
2021/12/24 06:39:47;;;;;;;43.08;13.90;;;8.70;99.90;;;;;;5096574;27;20063;-62
2021/12/24 06:42:13;;;;;;;26.83;12.55;;;8.70;99.90;;;;;;5077309;28;20477;-62
2021/12/24 06:44:39;;;;;;;34.30;13.70;;;8.70;99.90;;;;;;5097044;27;20040;-62
2021/12/24 06:47:05;;;;;;;31.27;13.07;;;8.70;99.90;;;;;;5080541;28;20146;-62
2021/12/24 06:49:31;;;;;;;31.17;12.38;;;8.70;99.90;;;;;;5083192;28;20421;-62
2021/12/24 06:51:56;;;;;;;27.00;11.60;;;8.60;99.90;;;;;;5097409;27;20089;-62
2021/12/24 06:54:22;;;;;;;33.78;11.43;;;8.60;99.90;;;;;;5080750;28;20197;-62
2021/12/24 06:56:48;;;;;;;34.15;11.75;;;8.60;99.90;;;;;;5077319;28;20060;-62
2021/12/24 06:59:14;;;;;;;32.47;9.93;;;8.60;99.90;;;;;;5063876;28;20039;-62
2021/12/24 07:01:41;;;;;;;26.40;10.60;;;8.60;99.90;;;;;;5096152;28;20036;-62
2021/12/24 07:04:08;;;;;;;26.30;10.00;;;8.60;99.90;;;;;;5076687;28;20047;-62
2021/12/24 07:06:34;;;;;;;36.83;10.98;;;8.50;99.90;;;;;;5077117;28;20048;-62
2021/12/24 07:08:59;;;;;;;31.48;9.40;;;8.50;99.90;;;;;;5097501;28;20088;-62
2021/12/24 07:11:25;;;;;;;30.35;9.35;;;8.50;99.90;;;;;;5097016;28;20039;-62
2021/12/24 07:13:52;;;;;;;26.77;7.82;;;8.50;99.90;;;;;;5081371;28;20044;-62
2021/12/24 07:16:18;;;;;;;28.80;8.35;;;8.50;99.90;;;;;;5098996;28;20059;-62
2021/12/24 07:18:44;;;;;;;24.48;7.70;;;8.50;99.90;;;;;;5093882;28;20040;-62
2021/12/24 07:21:09;;;;;;;29.02;7.93;;;8.50;99.90;;;;;;5064999;28;20073;-62
2021/12/24 07:23:35;;;;;;;28.00;8.05;;;8.50;99.90;;;;;;5095193;28;20131;-62
2021/12/24 07:26:02;;;;;;;30.15;8.38;;;8.50;99.90;;;;;;5097338;28;20043;-62
2021/12/24 07:28:28;;;;;;;31.38;9.52;;;8.50;99.90;;;;;;5109329;27;20104;-62
2021/12/24 07:30:54;;;;;;;32.50;8.43;;;8.40;99.90;;;;;;5077732;28;20055;-62
2021/12/24 07:33:20;;;;;;;28.35;8.85;;;8.50;99.90;;;;;;5079306;28;20043;-62
2021/12/24 07:35:46;;;;;;;34.45;8.30;;;8.40;99.90;;;;;;5083122;28;20047;-62
2021/12/24 07:38:15;;;;;;;22.55;8.00;;;8.40;99.90;;;;;;5095628;27;20055;-62
2021/12/24 07:40:43;;;;;;;28.08;7.85;;;8.50;99.90;;;;;;5096272;28;20122;-62
2021/12/24 07:43:09;;;;;;;23.50;7.15;;;9.00;99.90;;;;;;5096462;27;20043;-62
2021/12/24 07:45:35;;;;;;;24.15;7.47;;;8.50;99.90;;;;;;5077123;28;20043;-62
2021/12/24 07:53:04;;;;;;;23.45;6.45;;;8.40;99.90;;;;;;5079883;28;20043;-62
2021/12/24 07:55:30;;;;;;;20.88;7.88;;;8.50;99.90;;;;;;5077949;28;20035;-62
2021/12/24 07:57:55;;;;;;;20.65;6.65;;;8.40;99.90;;;;;;5096631;27;20520;-62
2021/12/24 08:00:23;;;;;;;19.55;6.93;;;8.50;99.90;;;;;;5096676;28;20066;-62
2021/12/24 08:02:49;;;;;;;23.20;6.53;;;8.40;99.90;;;;;;5075736;28;20409;-62
2021/12/24 08:05:19;;;;;;;21.85;6.60;;;8.40;99.90;;;;;;5078125;28;20047;-62
2021/12/24 08:07:45;;;;;;;26.52;6.72;;;8.70;99.90;;;;;;5093170;27;20040;-62
2021/12/24 08:10:10;;;;;;;27.77;5.68;;;8.40;99.90;;;;;;5096155;28;20401;-62
2021/12/24 08:12:36;;;;;;;26.63;7.05;;;8.40;99.90;;;;;;5074283;28;20454;-62
2021/12/24 08:15:04;;;;;;;25.67;5.35;;;8.40;99.90;;;;;;5080210;28;20047;-63
2021/12/24 08:17:30;;;;;;;27.33;6.07;;;8.50;99.90;;;;;;5094248;28;20052;-62
2021/12/24 08:19:56;;;;;;;26.85;6.05;;;8.50;99.90;;;;;;5078007;28;20051;-62
2021/12/24 08:22:21;;;;;;;20.90;6.25;;;8.40;99.90;;;;;;5093672;28;20035;-62
2021/12/24 08:24:47;;;;;;;22.98;5.38;;;8.40;99.90;;;;;;5095338;28;20039;-62
2021/12/24 08:27:13;;;;;;;31.33;6.45;;;8.40;99.90;;;;;;5077121;28;20469;-62
2021/12/24 08:29:39;;;;;;;27.75;6.45;;;8.40;99.90;;;;;;5077289;28;20588;-62
2021/12/24 08:32:05;;;;;;;28.40;5.75;;;8.40;99.90;;;;;;5081308;28;20244;-62
2021/12/24 08:34:32;;;;;;;22.35;6.35;;;8.40;99.90;;;;;;5079747;28;20047;-62
2021/12/24 08:36:58;;;;;;;24.35;5.85;;;8.40;99.90;;;;;;5081075;28;20481;-62
2021/12/24 08:39:24;;;;;;;36.28;6.55;;;8.40;99.90;;;;;;5096542;28;20042;-62
2021/12/24 08:41:54;;;;;;;29.27;6.03;;;8.40;99.90;;;;;;5081510;28;20047;-62
2021/12/24 08:44:21;;;;;;;29.35;6.63;;;8.50;99.90;;;;;;5095837;28;20039;-62
2021/12/24 08:46:47;;;;;;;26.38;5.25;;;8.40;99.90;;;;;;5096280;28;20074;-62
2021/12/24 08:49:18;;;;;;;31.08;5.78;;;8.40;99.90;;;;;;5095381;28;20078;-62
2021/12/24 08:51:44;;;;;;;29.77;5.45;;;8.40;99.90;;;;;;5074274;28;20056;-62
2021/12/24 08:54:10;;;;;;;27.02;5.13;;;8.50;99.90;;;;;;5092729;28;20042;-62
2021/12/24 08:56:35;;;;;;;22.05;4.78;;;8.50;99.90;;;;;;5111184;27;20047;-62
2021/12/24 08:59:01;;;;;;;31.27;5.60;;;8.50;99.90;;;;;;5074796;28;20063;-62
2021/12/24 09:01:27;;;;;;;24.08;5.03;;;8.50;99.90;;;;;;5076481;28;20043;-62
2021/12/24 09:03:53;;;;;;;28.33;5.90;;;8.50;99.90;;;;;;5094028;28;20084;-62
2021/12/24 09:06:18;;;;;;;26.60;4.57;;;8.50;99.90;;;;;;5076182;28;20044;-62
2021/12/24 09:08:44;;;;;;;32.10;5.45;;;8.50;99.90;;;;;;5092161;28;20044;-62
2021/12/24 09:11:11;;;;;;;21.10;5.25;;;8.50;99.90;;;;;;5096211;28;20059;-62
2021/12/24 09:13:37;;;;;;;21.70;4.65;;;8.50;99.90;;;;;;5093477;28;20482;-62
2021/12/24 09:16:03;;;;;;;31.25;5.07;;;8.50;99.90;;;;;;5097656;28;20050;-62
2021/12/24 09:18:30;;;;;;;30.45;5.65;;;8.50;99.90;;;;;;5080082;28;20044;-62
2021/12/24 09:21:00;;;;;;;25.15;5.07;;;8.60;99.90;;;;;;5078259;28;20065;-62
2021/12/24 09:23:42;;;;;;;32.60;6.30;;;8.50;99.90;;;;;;5094316;28;20775;-62
2021/12/24 09:26:08;;;;;;;25.98;4.95;;;8.50;99.90;;;;;;5076755;28;20542;-62
2021/12/24 09:28:33;;;;;;;22.60;5.00;;;8.50;99.90;;;;;;5098138;28;20043;-62
2021/12/24 09:30:59;;;;;;;25.58;6.75;;;8.50;99.90;;;;;;5060220;28;20055;-62
2021/12/24 09:33:24;;;;;;;30.05;6.60;;;8.50;99.90;;;;;;5079703;28;20135;-62
2021/12/24 09:35:50;;;;;;;27.92;5.80;;;8.50;99.90;;;;;;5096152;28;20086;-62
2021/12/24 09:38:15;;;;;;;30.02;5.80;;;8.60;99.90;;;;;;5076090;28;20043;-62
2021/12/24 09:40:41;;;;;;;27.50;5.85;;;8.60;99.90;;;;;;5094331;28;20044;-62
2021/12/24 09:43:07;;;;;;;30.08;6.10;;;8.60;99.90;;;;;;5096969;28;20043;-62
2021/12/24 09:45:33;;;;;;;27.80;6.18;;;8.60;99.90;;;;;;5094918;28;20036;-62
2021/12/24 09:47:58;;;;;;;33.33;6.93;;;8.60;99.90;;;;;;5094554;28;20074;-62
2021/12/24 09:50:28;;;;;;;27.45;5.47;;;8.60;99.90;;;;;;5077602;28;20040;-62
2021/12/24 09:52:54;;;;;;;26.40;6.05;;;8.60;99.90;;;;;;5091973;28;20044;-62
2021/12/24 09:55:24;;;;;;;31.05;5.88;;;8.60;99.90;;;;;;5078630;28;20105;-62
2021/12/24 09:57:51;;;;;;;31.63;5.93;;;8.60;99.90;;;;;;5096664;28;20040;-62
2021/12/24 10:00:19;;;;;;;26.20;6.05;;;8.60;99.90;;;;;;5094691;28;20401;-62
2021/12/24 10:02:48;;;;;;;34.10;6.03;;;8.60;99.90;;;;;;5074613;28;20040;-62
2021/12/24 10:05:28;;;;;;;23.65;5.47;;;8.70;99.90;;;;;;5095861;28;20400;-62
2021/12/24 10:08:06;;;;;;;23.90;6.10;;;8.60;99.90;;;;;;5097168;28;20054;-62
2021/12/24 10:10:34;;;;;;;28.08;5.97;;;8.60;99.90;;;;;;5094090;28;20425;-60
2021/12/24 10:13:26;;;;;;;21.77;5.10;;;8.70;99.90;;;;;;5093510;28;20102;-60
2021/12/24 10:15:56;;;;;;;43.40;8.25;;;8.70;99.90;;;;;;5075631;28;20056;-60
2021/12/24 10:18:36;;;;;;;25.70;6.68;;;8.70;99.90;;;;;;5093360;27;20044;-60
2021/12/24 10:21:13;;;;;;;30.38;6.03;;;8.70;99.90;;;;;;5077306;28;20051;-60
2021/12/24 10:23:44;;;;;;;25.08;6.50;;;8.70;99.90;;;;;;5095359;28;20039;-60
2021/12/24 10:26:22;;;;;;;28.35;5.43;;;8.70;99.90;;;;;;5096500;27;20055;-60
2021/12/24 10:28:59;;;;;;;29.60;6.30;;;8.70;99.90;;;;;;5098969;28;20061;-60
2021/12/24 10:31:31;;;;;;;32.42;6.90;;;8.70;99.90;;;;;;5099353;28;20154;-60
2021/12/24 10:34:19;;;;;;;34.72;6.63;;;8.70;99.90;;;;;;5079071;28;20168;-60
2021/12/24 10:36:57;;;;;;;26.90;6.32;;;8.70;99.90;;;;;;5079851;28;20049;-59
2021/12/24 10:39:38;;;;;;;29.20;7.90;;;8.70;99.90;;;;;;5096561;27;20039;-60
2021/12/24 10:42:19;;;;;;;32.90;7.07;;;8.60;99.90;;;;;;5082753;28;20054;-62
2021/12/24 10:44:47;;;;;;;30.55;6.82;;;8.60;99.90;;;;;;5078709;28;20035;-62
2021/12/24 10:47:18;;;;;;;34.55;6.82;;;8.70;99.90;;;;;;5085904;28;20047;-62
2021/12/24 10:55:30;;;;;;;20.67;5.30;;;8.70;99.90;;;;;;5085924;28;20149;-62
2021/12/24 10:57:59;;;;;;;27.40;5.15;;;8.70;99.90;;;;;;5086266;28;20516;-62
2021/12/24 11:00:48;;;;;;;20.13;4.90;;;8.70;99.90;;;;;;5103153;28;20024;-62
2021/12/24 11:03:23;;;;;;;18.50;4.38;;;8.70;99.90;;;;;;5083487;28;20058;-62
2021/12/24 11:05:56;;;;;;;15.23;3.63;;;8.70;99.90;;;;;;5102069;28;20092;-62
2021/12/24 11:08:25;;;;;;;11.45;2.92;;;8.70;99.90;;;;;;5102001;27;20051;-62
2021/12/24 11:10:57;;;;;;;14.18;3.08;;;8.70;99.90;;;;;;5097922;28;20123;-62
2021/12/24 11:13:31;;;;;;;11.25;2.53;;;8.70;99.90;;;;;;5081155;28;20087;-62
2021/12/24 11:15:59;;;;;;;9.70;1.98;;;8.70;99.90;;;;;;5100687;28;20050;-62
2021/12/24 11:18:27;;;;;;;5.15;1.80;;;8.60;99.90;;;;;;5101066;28;20408;-62
2021/12/24 11:20:55;;;;;;;3.42;0.73;;;8.60;99.90;;;;;;5083925;28;20039;-62
2021/12/24 11:23:24;;;;;;;1.48;0.40;;;8.50;99.90;;;;;;5098810;28;20044;-62
2021/12/24 11:25:52;;;;;;;0.65;0.17;;;8.30;99.90;;;;;;5104484;27;20038;-62
2021/12/24 11:28:19;;;;;;;0.95;0.30;;;8.20;99.90;;;;;;5085509;28;20531;-62
2021/12/24 11:30:52;;;;;;;0.43;0.20;;;8.00;99.90;;;;;;5084363;28;20040;-62
2021/12/24 11:33:21;;;;;;;0.82;0.60;;;7.80;99.90;;;;;;5082244;28;20577;-62
2021/12/24 11:35:49;;;;;;;1.05;0.20;;;7.70;99.90;;;;;;5099566;27;20032;-62
2021/12/24 11:38:20;;;;;;;0.30;0.15;;;7.60;99.90;;;;;;5081976;28;20044;-62
2021/12/24 11:40:48;;;;;;;0.47;0.20;;;7.50;99.90;;;;;;5099728;28;20511;-62
2021/12/24 11:43:15;;;;;;;1.10;0.20;;;7.40;99.90;;;;;;5102146;28;20029;-62
2021/12/24 11:45:41;;;;;;;0.40;0.20;;;7.50;99.90;;;;;;5081050;28;20075;-62
2021/12/24 11:48:06;;;;;;;0.63;0.20;;;7.40;99.90;;;;;;5084174;28;20063;-62
2021/12/24 11:50:34;;;;;;;0.40;0.20;;;7.30;99.90;;;;;;5085745;27;20906;-62
2021/12/24 11:53:04;;;;;;;0.65;0.40;;;7.30;99.90;;;;;;5080756;28;20512;-62
2021/12/24 11:55:41;;;;;;;0.57;0.40;;;7.20;99.90;;;;;;5101471;28;20055;-62
2021/12/24 11:58:19;;;;;;;2.78;0.43;;;7.20;99.90;;;;;;5097886;28;20048;-62
2021/12/24 12:00:48;;;;;;;0.60;0.40;;;7.20;99.90;;;;;;5099162;28;20051;-62
2021/12/24 12:03:29;;;;;;;2.58;0.40;;;7.20;99.90;;;;;;5100550;28;20067;-62
2021/12/24 12:06:27;;;;;;;1.02;0.50;;;7.10;99.90;;;;;;5082870;28;20131;-62
2021/12/24 12:08:55;;;;;;;0.50;0.40;;;7.10;99.90;;;;;;5097539;28;20127;-62
2021/12/24 12:11:23;;;;;;;2.35;0.40;;;7.10;99.90;;;;;;5080713;28;20514;-62
2021/12/24 12:13:57;;;;;;;0.77;0.40;;;7.20;99.90;;;;;;5080081;28;20130;-62
2021/12/24 12:16:41;;;;;;;0.40;0.40;;;7.20;99.90;;;;;;5098521;27;20051;-62
2021/12/24 12:19:21;;;;;;;0.65;0.40;;;7.20;99.90;;;;;;5080438;28;20044;-62
2021/12/24 12:25:00;;;;;;;1.52;0.60;;;7.40;99.90;;;;;;5099554;28;20176;-61
2021/12/24 12:27:37;;;;;;;0.90;0.50;;;7.40;99.90;;;;;;5081998;28;20553;-62
2021/12/24 12:30:21;;;;;;;0.70;0.50;;;7.40;99.90;;;;;;5098852;27;20076;-62
2021/12/24 12:32:49;;;;;;;0.73;0.52;;;7.40;99.90;;;;;;5097446;27;20043;-62
2021/12/24 12:35:15;;;;;;;0.70;0.50;;;7.40;99.90;;;;;;5112259;27;20043;-62
2021/12/24 12:37:53;;;;;;;0.98;0.50;;;7.40;99.90;;;;;;5097739;28;20048;-62
2021/12/24 12:40:19;;;;;;;1.08;0.50;;;7.30;99.90;;;;;;5083747;28;20043;-62
2021/12/24 12:42:56;;;;;;;0.60;0.50;;;7.30;99.90;;;;;;5098696;28;20047;-62
2021/12/24 12:45:43;;;;;;;0.40;0.30;;;7.30;99.90;;;;;;5100140;28;20553;-62
2021/12/24 12:48:16;;;;;;;0.57;0.40;;;7.30;99.90;;;;;;5089836;28;20078;-62
2021/12/24 12:51:00;;;;;;;2.15;0.60;;;7.30;99.90;;;;;;5082140;28;20054;-62
2021/12/24 12:53:35;;;;;;;1.50;0.55;;;7.30;99.90;;;;;;5081787;28;20066;-62
2021/12/24 12:56:20;;;;;;;0.82;0.43;;;7.20;99.90;;;;;;5082052;28;20068;-62
2021/12/24 12:58:59;;;;;;;0.80;0.40;;;7.20;99.90;;;;;;5099812;28;20657;-62
2021/12/24 13:01:26;;;;;;;1.25;0.68;;;7.20;99.90;;;;;;5080377;28;20035;-62
2021/12/24 13:03:58;;;;;;;2.60;0.55;;;7.20;99.90;;;;;;5082417;28;20070;-62
2021/12/24 13:06:38;;;;;;;0.50;0.40;;;7.20;99.90;;;;;;5080524;28;20047;-62
2021/12/24 13:09:07;;;;;;;2.53;0.52;;;7.20;99.90;;;;;;5097905;28;20507;-62
2021/12/24 13:11:38;;;;;;;2.40;0.60;;;7.30;99.90;;;;;;5099278;28;20506;-62
2021/12/24 13:14:04;;;;;;;1.48;0.60;;;7.30;99.90;;;;;;5083576;28;20081;-62
2021/12/24 13:16:50;;;;;;;0.80;0.68;;;7.30;99.90;;;;;;5079205;28;20134;-62
2021/12/24 13:24:37;;;;;;;0.70;0.60;;;7.20;99.90;;;;;;5079973;28;20044;-62
2021/12/24 13:27:03;;;;;;;0.70;0.50;;;7.20;99.90;;;;;;5080924;28;20150;-62
2021/12/24 13:29:29;;;;;;;1.38;0.50;;;7.20;99.90;;;;;;5101700;28;20041;-62
2021/12/24 13:31:56;;;;;;;0.77;0.50;;;7.20;99.90;;;;;;5083492;28;20048;-62
2021/12/24 13:34:24;;;;;;;1.20;0.70;;;7.20;99.90;;;;;;5071105;28;20052;-62
2021/12/24 13:36:50;;;;;;;0.70;0.43;;;7.30;99.90;;;;;;5102422;28;20047;-62
2021/12/24 13:39:21;;;;;;;1.95;0.70;;;7.30;99.90;;;;;;5084909;28;20044;-62
2021/12/24 13:41:48;;;;;;;0.70;0.50;;;7.30;99.90;;;;;;5079845;28;20158;-62
2021/12/24 13:44:26;;;;;;;2.03;0.60;;;8.00;99.90;;;;;;5084790;28;20040;-62
2021/12/24 13:47:12;;;;;;;1.85;0.57;;;7.30;99.90;;;;;;5083434;28;20047;-62
2021/12/24 13:50:00;;;;;;;0.97;0.73;;;7.30;99.90;;;;;;5099387;28;20040;-62
2021/12/24 13:55:36;;;;;;;1.40;0.88;;;7.30;99.90;;;;;;5115926;27;20052;-62
2021/12/24 13:58:14;;;;;;;1.00;0.70;;;7.20;99.90;;;;;;5088770;28;20043;-62
2021/12/24 14:00:50;;;;;;;1.60;0.90;;;7.20;99.90;;;;;;5089167;28;20043;-62
2021/12/24 14:03:18;;;;;;;0.98;0.77;;;7.20;99.90;;;;;;5104175;28;20040;-62
2021/12/24 14:05:49;;;;;;;1.25;0.77;;;7.20;99.90;;;;;;5117006;27;20093;-62
2021/12/24 14:08:19;;;;;;;2.28;0.82;;;7.20;99.90;;;;;;5116226;27;20044;-62
2021/12/24 14:10:47;;;;;;;4.15;1.13;;;7.20;99.90;;;;;;5104382;28;20032;-62
2021/12/24 14:13:39;;;;;;;3.03;1.27;;;7.20;99.90;;;;;;5089109;28;20047;-62
2021/12/24 14:24:11;;;;;;;1.70;1.45;;;7.20;99.90;;;;;;5085755;28;20058;-62
2021/12/24 14:26:42;;;;;;;2.75;1.55;;;7.30;99.90;;;;;;5102216;28;20381;-62
2021/12/24 14:29:09;;;;;;;2.35;1.40;;;7.30;99.90;;;;;;5086058;28;20051;-62
2021/12/24 14:31:57;;;;;;;3.60;1.33;;;7.30;99.90;;;;;;5103096;28;20035;-62
2021/12/24 14:34:32;;;;;;;4.90;1.90;;;7.30;99.90;;;;;;5103004;28;20737;-62
2021/12/24 14:37:00;;;;;;;2.03;1.40;;;7.30;99.90;;;;;;5101977;28;20122;-62
2021/12/24 14:39:35;;;;;;;1.77;1.13;;;7.30;99.90;;;;;;5084006;28;20165;-62
2021/12/24 14:42:32;;;;;;;2.95;1.77;;;7.30;99.90;;;;;;5083976;28;20489;-62
2021/12/24 14:45:22;;;;;;;1.60;1.50;;;7.30;99.90;;;;;;5068498;28;20167;-62
2021/12/24 14:48:21;;;;;;;1.48;1.38;;;7.20;99.90;;;;;;5087058;28;20612;-62
2021/12/24 14:50:57;;;;;;;3.45;1.40;;;7.20;99.90;;;;;;5104044;28;20099;-62
2021/12/24 14:53:30;;;;;;;3.30;1.65;;;7.30;99.90;;;;;;5102744;28;20486;-62
2021/12/24 14:56:20;;;;;;;2.25;1.60;;;7.30;99.90;;;;;;5103572;27;20059;-62